Time;durP1;ratioP1;P1;durP2;ratioP2;P2;SDS_P1;SDS_P2;PMS_P1;PMS_P2;Temp;Humidity;BMP_temperature;BMP_pressure;BME280_temperature;BME280_humidity;BME280_pressure;Samples;Min_cycle;Max_cycle;Signal;HPM_P1;HPM_P2
2023/01/12 00:02:13;;;;;;;9.70;1.40;;;6.90;99.90;;;;;;6273198;22;20175;-84
2023/01/12 00:04:39;;;;;;;6.45;1.77;;;6.90;99.90;;;;;;6270666;22;20218;-84
2023/01/12 00:07:06;;;;;;;11.43;2.10;;;6.90;99.90;;;;;;6272279;22;20152;-85
2023/01/12 00:09:32;;;;;;;15.13;1.60;;;6.80;99.90;;;;;;6285358;22;20166;-87
2023/01/12 00:11:57;;;;;;;6.27;1.33;;;6.80;99.90;;;;;;6272176;22;20243;-87
2023/01/12 00:14:23;;;;;;;8.67;1.40;;;6.90;99.90;;;;;;6272464;22;20720;-87
2023/01/12 00:16:49;;;;;;;4.13;1.57;;;7.00;99.90;;;;;;6274604;22;20148;-86
2023/01/12 00:19:17;;;;;;;6.55;2.03;;;7.10;99.90;;;;;;6271974;22;20209;-87
2023/01/12 00:24:35;;;;;;;9.50;1.98;;;7.20;99.90;;;;;;6274658;22;20666;-86
2023/01/12 00:27:03;;;;;;;6.82;1.90;;;7.20;99.90;;;;;;6271885;22;20148;-88
2023/01/12 00:29:29;;;;;;;5.70;1.80;;;7.20;99.90;;;;;;6273712;22;20175;-87
2023/01/12 00:31:56;;;;;;;9.87;3.70;;;7.20;99.90;;;;;;6276853;22;20615;-88
2023/01/12 00:34:22;;;;;;;7.20;1.90;;;7.20;99.90;;;;;;6276133;22;20861;-86
2023/01/12 00:36:48;;;;;;;5.70;1.52;;;7.20;99.90;;;;;;6276448;22;20210;-87
2023/01/12 00:39:15;;;;;;;3.67;1.00;;;7.20;99.90;;;;;;6273711;22;20159;-86
2023/01/12 00:47:12;;;;;;;5.35;0.93;;;6.90;99.90;;;;;;6279076;22;20521;-86
2023/01/12 00:49:43;;;;;;;11.02;1.70;;;6.90;99.90;;;;;;6276959;22;20594;-86
2023/01/12 00:52:11;;;;;;;16.55;1.80;;;7.00;99.90;;;;;;6294993;22;20180;-87
2023/01/12 00:54:37;;;;;;;7.05;1.58;;;7.00;99.90;;;;;;6278809;22;20133;-86
2023/01/12 00:57:04;;;;;;;6.60;1.30;;;7.00;99.90;;;;;;6274404;22;20162;-87
2023/01/12 00:59:29;;;;;;;2.38;1.00;;;7.00;99.90;;;;;;6285780;22;20402;-89
2023/01/12 01:01:55;;;;;;;1.10;0.90;;;7.10;99.90;;;;;;6289127;22;20176;-88
2023/01/12 01:04:20;;;;;;;8.07;1.00;;;7.20;99.90;;;;;;6275596;22;20176;-87
2023/01/12 01:06:46;;;;;;;4.60;1.30;;;7.20;99.90;;;;;;6273953;22;20144;-85
2023/01/12 01:09:12;;;;;;;9.23;1.93;;;7.20;99.90;;;;;;6273428;22;20259;-86
2023/01/12 01:11:38;;;;;;;2.20;1.00;;;7.00;99.90;;;;;;6273353;22;20164;-88
2023/01/12 01:14:03;;;;;;;8.83;1.83;;;7.00;99.90;;;;;;6276158;22;20384;-89
2023/01/12 01:16:29;;;;;;;4.90;1.67;;;7.10;99.90;;;;;;6272551;22;20155;-87
2023/01/12 01:18:56;;;;;;;4.83;1.40;;;7.10;99.90;;;;;;6274195;22;20848;-87
2023/01/12 01:21:22;;;;;;;4.32;1.10;;;7.20;99.90;;;;;;6274266;22;20941;-89
2023/01/12 01:23:47;;;;;;;4.97;1.80;;;7.50;99.90;;;;;;6277806;22;20172;-86
2023/01/12 01:26:16;;;;;;;2.60;1.20;;;7.30;99.90;;;;;;6276192;22;20217;-86
2023/01/12 01:28:42;;;;;;;3.47;1.00;;;7.30;99.90;;;;;;6275174;22;20160;-86
2023/01/12 01:31:09;;;;;;;7.20;1.30;;;7.30;99.90;;;;;;6270924;22;20254;-85
2023/01/12 01:33:37;;;;;;;5.93;1.55;;;7.30;99.90;;;;;;6274545;22;20591;-88
2023/01/12 01:36:03;;;;;;;9.55;1.60;;;7.30;99.90;;;;;;6288483;22;20163;-88
2023/01/12 01:38:30;;;;;;;1.70;0.80;;;7.30;99.90;;;;;;6270418;22;20152;-88
2023/01/12 01:40:56;;;;;;;6.53;1.02;;;7.30;99.90;;;;;;6275492;22;20171;-86
2023/01/12 01:43:23;;;;;;;7.80;1.03;;;7.30;99.90;;;;;;6270584;22;20199;-85
2023/01/12 01:46:12;;;;;;;6.18;1.60;;;7.30;99.90;;;;;;6265974;22;20379;-88
2023/01/12 01:48:39;;;;;;;2.25;1.00;;;7.30;99.90;;;;;;6273085;22;20132;-86
2023/01/12 01:51:15;;;;;;;0.80;0.70;;;7.30;99.90;;;;;;6275028;22;20168;-88
2023/01/12 01:53:44;;;;;;;3.17;1.88;;;7.30;99.90;;;;;;6268574;22;20172;-87
2023/01/12 01:56:29;;;;;;;5.88;0.93;;;7.30;99.90;;;;;;6272811;22;20227;-87
2023/01/12 01:58:57;;;;;;;6.68;1.20;;;7.30;99.90;;;;;;6275862;22;20234;-87
2023/01/12 02:01:23;;;;;;;2.80;1.45;;;7.30;99.90;;;;;;6272551;22;20163;-86
2023/01/12 02:03:50;;;;;;;2.60;0.90;;;7.30;99.90;;;;;;6269488;22;20206;-84
2023/01/12 02:06:16;;;;;;;1.70;1.13;;;7.30;99.90;;;;;;6272930;22;20385;-85
2023/01/12 02:08:56;;;;;;;2.47;1.17;;;7.10;99.90;;;;;;6272378;22;20151;-86
2023/01/12 02:17:11;;;;;;;4.57;1.20;;;7.20;99.90;;;;;;6286311;22;20143;-88
2023/01/12 02:20:19;;;;;;;7.07;1.02;;;7.20;99.90;;;;;;6282670;22;20194;-87
2023/01/12 02:23:16;;;;;;;4.15;1.35;;;7.20;99.90;;;;;;6273961;22;20144;-87
2023/01/12 02:26:04;;;;;;;2.70;1.15;;;7.30;99.90;;;;;;6278905;22;20525;-87
2023/01/12 02:28:48;;;;;;;7.53;1.38;;;7.20;99.90;;;;;;6272519;22;20144;-86
2023/01/12 02:31:41;;;;;;;5.97;1.50;;;7.20;99.90;;;;;;6271630;22;20231;-86
2023/01/12 02:34:20;;;;;;;1.30;0.80;;;7.30;99.90;;;;;;6272208;22;20155;-87
2023/01/12 02:36:58;;;;;;;7.32;1.45;;;7.20;99.90;;;;;;6273028;22;20144;-86
2023/01/12 02:39:36;;;;;;;3.35;0.98;;;7.20;99.90;;;;;;6271611;22;20235;-86
2023/01/12 02:45:10;;;;;;;6.20;1.23;;;7.40;99.90;;;;;;6273774;22;20198;-86
2023/01/12 02:48:04;;;;;;;7.32;1.17;;;7.40;99.90;;;;;;6272470;22;20148;-86
2023/01/12 02:50:40;;;;;;;2.45;1.30;;;7.40;99.90;;;;;;6269193;22;20795;-87
2023/01/12 02:53:17;;;;;;;2.92;1.45;;;7.50;99.90;;;;;;6272144;22;20249;-87
2023/01/12 02:55:44;;;;;;;2.75;1.52;;;7.50;99.90;;;;;;6275371;22;20582;-85
2023/01/12 02:58:12;;;;;;;8.43;1.27;;;7.60;99.90;;;;;;6273252;22;20163;-87
2023/01/12 03:00:41;;;;;;;2.05;1.48;;;7.50;99.90;;;;;;6273524;22;20175;-86
2023/01/12 03:03:07;;;;;;;10.15;1.85;;;7.50;99.90;;;;;;6276763;22;20178;-85
2023/01/12 03:05:32;;;;;;;5.15;1.50;;;7.40;99.90;;;;;;6289974;22;20191;-86
2023/01/12 03:08:00;;;;;;;7.60;1.17;;;7.50;99.90;;;;;;6271568;22;20171;-84
2023/01/12 03:10:42;;;;;;;5.60;1.40;;;7.50;99.90;;;;;;6272332;22;20605;-88
2023/01/12 03:13:12;;;;;;;2.88;1.30;;;7.50;99.90;;;;;;6275363;22;20135;-87
2023/01/12 03:15:42;;;;;;;3.83;0.80;;;7.50;99.90;;;;;;6275116;22;20147;-85
2023/01/12 03:18:19;;;;;;;2.70;0.70;;;7.50;99.90;;;;;;6274343;22;20372;-87
2023/01/12 03:20:59;;;;;;;3.35;1.02;;;7.60;99.90;;;;;;6274697;22;20198;-87
2023/01/12 03:23:34;;;;;;;3.50;1.30;;;7.60;99.90;;;;;;6275909;22;20139;-86
2023/01/12 03:26:03;;;;;;;3.33;1.50;;;7.50;99.90;;;;;;6275980;22;20151;-86
2023/01/12 03:28:33;;;;;;;6.40;1.50;;;7.50;99.90;;;;;;6275140;22;20151;-86
2023/01/12 03:31:07;;;;;;;5.60;1.55;;;7.50;99.90;;;;;;6274332;22;20601;-86
2023/01/12 03:33:33;;;;;;;5.55;1.25;;;7.50;99.90;;;;;;6277703;22;20147;-87
2023/01/12 03:36:20;;;;;;;6.17;1.90;;;7.40;99.90;;;;;;6292438;22;20164;-87
2023/01/12 03:39:01;;;;;;;8.02;1.52;;;7.40;99.90;;;;;;6275579;22;20154;-87
2023/01/12 03:41:45;;;;;;;3.55;0.70;;;7.50;99.90;;;;;;6276206;22;20182;-87
2023/01/12 03:44:19;;;;;;;4.28;1.25;;;7.60;99.90;;;;;;6274192;22;20806;-87
2023/01/12 03:46:54;;;;;;;1.92;1.17;;;7.60;99.90;;;;;;6274507;22;20140;-87
2023/01/12 03:49:30;;;;;;;3.45;1.80;;;7.50;99.90;;;;;;6276961;22;20591;-86
2023/01/12 03:51:57;;;;;;;4.25;1.73;;;7.50;99.90;;;;;;6284407;22;20250;-87
2023/01/12 03:54:24;;;;;;;6.78;2.00;;;7.50;99.90;;;;;;6273686;22;20769;-88
2023/01/12 03:56:53;;;;;;;4.22;1.30;;;7.50;99.90;;;;;;6278322;22;20170;-86
2023/01/12 03:59:20;;;;;;;3.60;1.30;;;7.50;99.90;;;;;;6277678;22;20155;-86
2023/01/12 04:01:47;;;;;;;4.13;1.60;;;7.50;99.90;;;;;;6274974;22;20239;-85
2023/01/12 04:04:13;;;;;;;3.05;1.10;;;7.40;99.90;;;;;;6275433;22;20620;-85
2023/01/12 04:06:39;;;;;;;2.77;1.40;;;7.50;99.90;;;;;;6277896;22;20152;-88
2023/01/12 04:09:05;;;;;;;6.07;1.47;;;7.60;99.90;;;;;;6284831;22;20439;-87
2023/01/12 04:14:14;;;;;;;2.92;1.20;;;7.60;99.90;;;;;;6277114;22;20702;-88
2023/01/12 04:16:40;;;;;;;3.77;1.50;;;7.60;99.90;;;;;;6276622;22;20151;-88
2023/01/12 04:19:05;;;;;;;5.73;2.00;;;7.70;99.90;;;;;;6274488;22;20166;-87
2023/01/12 04:24:15;;;;;;;5.38;1.50;;;7.70;99.90;;;;;;6279415;22;20190;-87
2023/01/12 04:26:41;;;;;;;3.77;1.87;;;7.60;99.90;;;;;;6282562;22;20775;-85
2023/01/12 04:29:06;;;;;;;6.30;1.17;;;7.60;99.90;;;;;;6275151;22;20282;-85
2023/01/12 04:31:31;;;;;;;9.97;1.70;;;7.70;99.90;;;;;;6277796;22;20167;-87
2023/01/12 04:33:57;;;;;;;8.00;1.47;;;7.70;99.90;;;;;;6288218;22;20155;-85
2023/01/12 04:36:22;;;;;;;3.50;1.07;;;7.70;99.90;;;;;;6280253;22;20590;-87
2023/01/12 04:38:48;;;;;;;9.90;1.70;;;7.70;99.90;;;;;;6270614;22;20294;-86
2023/01/12 04:41:13;;;;;;;5.57;1.47;;;7.70;99.90;;;;;;6273316;22;20163;-86
2023/01/12 04:43:39;;;;;;;5.30;1.43;;;7.70;99.90;;;;;;6276315;22;20148;-87
2023/01/12 04:46:06;;;;;;;3.70;1.10;;;7.70;99.90;;;;;;6297620;22;20178;-85
2023/01/12 04:48:32;;;;;;;11.15;2.70;;;7.80;99.90;;;;;;6276531;22;20163;-85
2023/01/12 04:50:59;;;;;;;4.18;1.10;;;7.70;99.90;;;;;;6278351;22;20246;-87
2023/01/12 04:53:25;;;;;;;5.38;1.70;;;7.70;99.90;;;;;;6290980;22;20162;-89
2023/01/12 04:55:51;;;;;;;3.87;1.30;;;7.70;99.90;;;;;;6273086;22;20263;-87
2023/01/12 04:58:16;;;;;;;5.37;1.33;;;7.60;99.90;;;;;;6271922;22;20152;-89
2023/01/12 05:00:42;;;;;;;5.20;1.37;;;7.60;99.90;;;;;;6266627;22;20210;-85
2023/01/12 05:03:11;;;;;;;3.90;1.27;;;7.70;99.90;;;;;;6270008;22;20148;-87
2023/01/12 05:05:36;;;;;;;6.00;1.30;;;7.80;99.90;;;;;;6270105;22;20184;-85
2023/01/12 05:10:56;;;;;;;4.82;1.42;;;7.80;99.90;;;;;;6270063;22;20874;-85
2023/01/12 05:13:23;;;;;;;10.63;1.50;;;7.80;99.90;;;;;;6267236;22;20824;-87
2023/01/12 05:15:49;;;;;;;3.65;1.25;;;7.80;99.90;;;;;;6266310;22;20230;-86
2023/01/12 05:18:14;;;;;;;3.70;1.13;;;7.90;99.90;;;;;;6267725;22;20147;-86
2023/01/12 05:20:40;;;;;;;5.10;0.90;;;7.80;99.90;;;;;;6267778;22;20179;-88
2023/01/12 05:23:06;;;;;;;15.53;2.10;;;7.90;99.90;;;;;;6267948;22;20160;-86
2023/01/12 05:25:32;;;;;;;6.33;1.67;;;7.90;99.90;;;;;;6270102;22;20183;-85
2023/01/12 05:27:58;;;;;;;10.75;1.27;;;7.90;99.90;;;;;;6270724;22;20143;-87
2023/01/12 05:30:25;;;;;;;4.03;1.15;;;7.80;99.90;;;;;;6274882;22;20174;-84
2023/01/12 05:32:51;;;;;;;6.75;1.90;;;7.70;99.90;;;;;;6273212;22;20154;-86
2023/01/12 05:35:16;;;;;;;6.00;2.47;;;7.70;99.90;;;;;;6267456;22;20233;-85
2023/01/12 05:37:42;;;;;;;9.70;1.47;;;7.60;99.90;;;;;;6272316;22;20159;-85
2023/01/12 05:40:09;;;;;;;6.10;1.40;;;7.70;99.90;;;;;;6271201;22;20156;-85
2023/01/12 05:45:19;;;;;;;10.77;2.17;;;7.70;99.90;;;;;;6273295;22;20175;-87
2023/01/12 05:47:44;;;;;;;8.80;1.60;;;7.80;99.90;;;;;;6274445;22;20151;-85
2023/01/12 05:50:10;;;;;;;8.33;1.23;;;7.80;99.90;;;;;;6272916;22;20659;-88
2023/01/12 05:52:36;;;;;;;4.53;1.57;;;7.80;99.90;;;;;;6275455;22;20184;-85
2023/01/12 05:55:01;;;;;;;6.13;1.07;;;7.80;99.90;;;;;;6284274;22;20148;-87
2023/01/12 05:57:31;;;;;;;12.03;1.90;;;7.90;99.90;;;;;;6277604;22;20152;-86
2023/01/12 05:59:56;;;;;;;7.30;1.90;;;7.80;99.90;;;;;;6277008;22;20221;-88
2023/01/12 06:02:22;;;;;;;6.77;2.60;;;7.90;99.90;;;;;;6277616;22;20180;-89
2023/01/12 06:04:47;;;;;;;6.00;2.73;;;8.00;99.90;;;;;;6282604;22;20215;-86
2023/01/12 06:07:14;;;;;;;7.73;3.00;;;8.10;99.90;;;;;;6267001;22;20207;-85
2023/01/12 06:09:41;;;;;;;3.60;1.60;;;8.10;99.90;;;;;;6291988;22;20140;-87
2023/01/12 06:14:53;;;;;;;7.75;1.52;;;8.10;99.90;;;;;;6270927;22;20537;-87
2023/01/12 06:17:19;;;;;;;10.97;1.43;;;8.20;99.90;;;;;;6262825;22;20152;-85
2023/01/12 06:19:44;;;;;;;7.73;1.90;;;8.10;99.90;;;;;;6267816;22;20152;-87
2023/01/12 06:22:10;;;;;;;9.83;2.70;;;8.20;99.90;;;;;;6270018;22;20159;-86
2023/01/12 06:24:36;;;;;;;7.50;1.20;;;8.20;99.90;;;;;;6273930;22;20226;-87
2023/01/12 06:27:02;;;;;;;5.75;1.83;;;8.20;99.90;;;;;;6275005;22;20152;-84
2023/01/12 06:29:27;;;;;;;12.50;2.40;;;8.20;99.90;;;;;;6276391;22;20159;-86
2023/01/12 06:31:53;;;;;;;4.90;1.87;;;8.30;99.90;;;;;;6277703;22;20691;-87
2023/01/12 06:34:19;;;;;;;13.80;2.90;;;8.20;99.90;;;;;;6279186;22;20148;-84
2023/01/12 06:36:44;;;;;;;5.97;2.05;;;8.30;99.90;;;;;;6297627;22;20163;-83
2023/01/12 06:39:11;;;;;;;11.30;2.17;;;8.30;99.90;;;;;;6297788;22;20132;-83
2023/01/12 06:44:21;;;;;;;3.13;1.35;;;8.20;99.90;;;;;;6290838;22;20187;-83
2023/01/12 06:46:47;;;;;;;17.30;1.83;;;8.20;99.90;;;;;;6288520;22;20156;-82
2023/01/12 06:49:12;;;;;;;5.83;1.53;;;8.10;99.90;;;;;;6293827;22;20143;-83
2023/01/12 06:51:38;;;;;;;7.47;2.90;;;8.20;99.90;;;;;;6293536;22;20398;-83
2023/01/12 06:54:04;;;;;;;5.83;1.73;;;8.10;99.90;;;;;;6293396;22;20628;-83
2023/01/12 06:56:29;;;;;;;6.93;1.10;;;8.10;99.90;;;;;;6296051;22;20159;-84
2023/01/12 06:58:55;;;;;;;11.23;1.60;;;8.10;99.90;;;;;;6294529;22;20213;-84
2023/01/12 07:01:20;;;;;;;6.10;1.60;;;8.00;99.90;;;;;;6296124;22;20375;-84
2023/01/12 07:03:46;;;;;;;3.87;1.77;;;8.00;99.90;;;;;;6281276;22;20159;-85
2023/01/12 07:06:13;;;;;;;3.07;1.27;;;8.00;99.90;;;;;;6276758;22;20215;-83
2023/01/12 07:08:38;;;;;;;5.20;1.40;;;8.00;99.90;;;;;;6280071;22;20151;-83
2023/01/12 07:11:11;;;;;;;5.93;1.40;;;8.00;99.90;;;;;;6276796;22;20168;-86
2023/01/12 07:13:36;;;;;;;13.40;1.60;;;8.00;99.90;;;;;;6277110;22;20150;-85
2023/01/12 07:16:02;;;;;;;5.60;1.47;;;8.00;99.90;;;;;;6277828;22;20151;-84
2023/01/12 07:18:28;;;;;;;4.43;1.60;;;8.10;99.90;;;;;;6273242;22;20152;-84
2023/01/12 07:20:53;;;;;;;4.72;1.38;;;8.00;99.90;;;;;;6276456;22;20193;-82
2023/01/12 07:23:19;;;;;;;5.20;1.20;;;8.00;99.90;;;;;;6289156;22;20152;-84
2023/01/12 07:25:45;;;;;;;8.13;1.80;;;8.00;99.90;;;;;;6281731;22;20273;-83
2023/01/12 07:28:10;;;;;;;10.80;2.27;;;8.00;99.90;;;;;;6287228;22;20164;-86
2023/01/12 07:30:36;;;;;;;5.03;1.00;;;8.10;99.90;;;;;;6278884;22;20226;-84
2023/01/12 07:33:06;;;;;;;7.73;1.77;;;8.10;99.90;;;;;;6276063;22;20151;-84
2023/01/12 07:35:32;;;;;;;2.65;1.13;;;8.10;99.90;;;;;;6271791;22;20160;-84
2023/01/12 07:37:57;;;;;;;11.53;1.77;;;8.10;99.90;;;;;;6273693;22;20155;-84
2023/01/12 07:40:23;;;;;;;7.13;2.30;;;8.10;99.90;;;;;;6293147;22;20140;-86
2023/01/12 07:43:00;;;;;;;7.50;2.90;;;8.10;99.90;;;;;;6270901;22;20148;-83
2023/01/12 07:45:26;;;;;;;9.48;2.80;;;8.00;99.90;;;;;;6270868;22;20313;-83
2023/01/12 07:47:53;;;;;;;1.23;0.87;;;8.00;99.90;;;;;;6269661;22;20200;-83
2023/01/12 07:50:19;;;;;;;4.82;1.20;;;8.00;99.90;;;;;;6262726;22;20234;-83
2023/01/12 07:52:44;;;;;;;7.95;1.40;;;8.00;99.90;;;;;;6274272;22;20173;-85
2023/01/12 07:55:10;;;;;;;3.67;1.53;;;8.00;99.90;;;;;;6272479;22;20551;-83
2023/01/12 07:57:36;;;;;;;4.10;1.67;;;8.10;99.90;;;;;;6273551;22;20156;-83
2023/01/12 08:00:04;;;;;;;7.13;1.47;;;8.20;99.90;;;;;;6271899;22;20189;-84
2023/01/12 08:02:29;;;;;;;7.90;1.83;;;8.20;99.90;;;;;;6271779;22;20183;-86
2023/01/12 08:04:55;;;;;;;6.33;1.37;;;8.10;99.90;;;;;;6270846;22;20164;-84
2023/01/12 08:07:21;;;;;;;3.27;1.67;;;8.20;99.90;;;;;;6268449;22;20174;-87
2023/01/12 08:09:46;;;;;;;3.10;1.63;;;8.30;99.90;;;;;;6272018;22;20151;-83
2023/01/12 08:12:12;;;;;;;6.63;2.03;;;8.20;99.90;;;;;;6271590;22;20175;-86
2023/01/12 08:14:40;;;;;;;5.10;1.33;;;8.30;99.90;;;;;;6271171;22;20151;-85
2023/01/12 08:17:10;;;;;;;5.38;1.50;;;8.30;99.90;;;;;;6277061;22;20156;-83
2023/01/12 08:19:44;;;;;;;7.63;1.25;;;8.20;99.90;;;;;;6269849;22;20194;-84
2023/01/12 08:22:18;;;;;;;14.02;2.40;;;8.20;99.90;;;;;;6265546;22;20179;-82
2023/01/12 08:24:51;;;;;;;6.97;1.55;;;8.30;99.90;;;;;;6271415;22;20183;-83
2023/01/12 08:27:19;;;;;;;6.35;1.60;;;8.30;99.90;;;;;;6271453;22;20172;-83
2023/01/12 08:29:49;;;;;;;4.90;1.95;;;8.30;99.90;;;;;;6282288;22;20166;-85
2023/01/12 08:32:17;;;;;;;16.27;2.40;;;8.30;99.90;;;;;;6286788;22;20843;-82
2023/01/12 08:34:46;;;;;;;2.88;1.90;;;8.30;99.90;;;;;;6274015;22;20148;-82
2023/01/12 08:37:15;;;;;;;5.65;1.08;;;8.10;99.90;;;;;;6289821;22;21078;-83
2023/01/12 08:39:41;;;;;;;6.47;1.67;;;8.00;99.90;;;;;;6273233;22;20231;-82
2023/01/12 08:42:08;;;;;;;5.20;1.90;;;8.10;99.90;;;;;;6272850;22;20379;-85
2023/01/12 08:44:34;;;;;;;6.05;3.47;;;8.00;99.90;;;;;;6297237;22;20565;-87
2023/01/12 08:47:00;;;;;;;7.68;1.10;;;8.00;99.90;;;;;;6280641;22;20847;-84
2023/01/12 08:49:28;;;;;;;11.63;1.23;;;8.10;99.90;;;;;;6270431;22;21054;-82
2023/01/12 08:51:54;;;;;;;2.85;1.30;;;8.10;99.90;;;;;;6273378;22;20923;-85
2023/01/12 08:54:20;;;;;;;3.72;1.67;;;8.00;99.90;;;;;;6273324;22;20148;-84
2023/01/12 08:56:46;;;;;;;9.23;1.60;;;8.20;99.90;;;;;;6273537;22;20731;-83
2023/01/12 08:59:12;;;;;;;4.80;1.20;;;8.20;99.90;;;;;;6273032;22;20466;-84
2023/01/12 09:01:38;;;;;;;2.67;1.07;;;8.30;99.90;;;;;;6271803;22;20179;-84
2023/01/12 09:04:04;;;;;;;3.03;1.30;;;8.30;99.90;;;;;;6274483;22;20906;-85
2023/01/12 09:06:37;;;;;;;2.90;1.80;;;8.40;99.90;;;;;;6274994;22;20365;-85
2023/01/12 09:09:07;;;;;;;4.57;1.52;;;8.50;99.90;;;;;;6273272;22;20609;-84
2023/01/12 09:11:34;;;;;;;9.38;1.50;;;8.50;99.90;;;;;;6272430;22;20199;-84
2023/01/12 09:14:00;;;;;;;5.72;1.30;;;8.60;99.90;;;;;;6272240;22;20156;-83
2023/01/12 09:16:27;;;;;;;2.25;0.88;;;8.60;99.90;;;;;;6273312;22;20189;-84
2023/01/12 09:18:53;;;;;;;10.80;1.30;;;8.80;99.90;;;;;;6272094;22;20832;-83
2023/01/12 09:21:21;;;;;;;4.10;1.60;;;8.90;99.90;;;;;;6271587;22;20171;-84
2023/01/12 09:23:48;;;;;;;6.30;1.10;;;8.90;99.90;;;;;;6273849;22;20612;-84
2023/01/12 09:26:20;;;;;;;7.72;1.58;;;8.90;99.90;;;;;;6290583;22;20136;-82
2023/01/12 09:28:46;;;;;;;5.72;1.98;;;8.90;99.90;;;;;;6278825;22;20155;-85
2023/01/12 09:31:18;;;;;;;3.43;1.10;;;9.00;99.90;;;;;;6273507;22;20176;-84
2023/01/12 09:33:43;;;;;;;6.07;1.75;;;9.10;99.90;;;;;;6273928;22;20397;-84
2023/01/12 09:36:14;;;;;;;6.50;0.90;;;9.20;99.90;;;;;;6273154;22;20144;-86
2023/01/12 09:38:41;;;;;;;6.43;1.80;;;9.30;99.90;;;;;;6275296;22;20207;-85
2023/01/12 09:47:55;;;;;;;2.65;0.95;;;9.50;99.90;;;;;;6210066;23;20227;-85
2023/01/12 09:50:25;;;;;;;3.40;0.80;;;9.60;99.90;;;;;;6266591;22;20147;-82
2023/01/12 09:52:57;;;;;;;3.72;2.30;;;9.50;99.90;;;;;;6286894;22;20196;-86
2023/01/12 09:55:32;;;;;;;1.15;0.98;;;9.60;99.90;;;;;;6277358;22;20143;-83
2023/01/12 09:58:14;;;;;;;8.77;1.40;;;9.60;99.90;;;;;;6274328;22;20194;-85
2023/01/12 10:00:39;;;;;;;5.07;0.90;;;9.60;99.90;;;;;;6286845;22;20555;-84
2023/01/12 10:03:06;;;;;;;9.47;1.80;;;9.60;99.90;;;;;;6286193;22;20152;-85
2023/01/12 10:05:36;;;;;;;4.10;1.00;;;9.60;99.90;;;;;;6271922;22;20180;-86
2023/01/12 10:08:03;;;;;;;3.97;1.52;;;9.70;99.90;;;;;;6271144;22;20198;-84
2023/01/12 10:10:28;;;;;;;6.50;1.50;;;9.70;99.90;;;;;;6272576;22;20147;-82
2023/01/12 10:12:59;;;;;;;5.03;1.40;;;9.70;99.90;;;;;;6271907;22;20148;-81
2023/01/12 10:15:41;;;;;;;12.13;2.05;;;9.80;99.90;;;;;;6269964;22;20485;-81
2023/01/12 10:18:19;;;;;;;3.85;1.23;;;9.90;99.90;;;;;;6271482;22;20148;-84
2023/01/12 10:20:45;;;;;;;1.35;1.08;;;10.00;99.90;;;;;;6272130;22;20174;-83
2023/01/12 10:23:18;;;;;;;2.13;0.63;;;10.10;99.90;;;;;;6270475;22;20155;-81
2023/01/12 10:26:07;;;;;;;1.42;0.60;;;10.10;99.90;;;;;;6272544;22;20163;-82
2023/01/12 10:28:35;;;;;;;5.80;1.10;;;10.10;99.90;;;;;;6270775;22;20136;-83
2023/01/12 10:31:02;;;;;;;6.40;1.80;;;10.20;99.90;;;;;;6269268;22;20172;-85
2023/01/12 10:33:30;;;;;;;3.67;1.38;;;10.30;99.90;;;;;;6271224;22;20231;-85
2023/01/12 10:36:09;;;;;;;2.20;0.70;;;10.20;99.90;;;;;;6268518;22;20160;-82
2023/01/12 10:38:52;;;;;;;4.97;1.00;;;10.30;99.90;;;;;;6269706;22;20167;-84
2023/01/12 10:41:20;;;;;;;4.70;1.20;;;10.40;99.90;;;;;;6271147;22;20175;-83
2023/01/12 10:44:05;;;;;;;4.65;0.73;;;10.50;99.90;;;;;;6270832;22;20144;-83
2023/01/12 10:46:33;;;;;;;2.22;0.57;;;10.60;99.90;;;;;;6272308;22;20599;-82
2023/01/12 10:49:19;;;;;;;1.48;0.80;;;10.70;99.90;;;;;;6273247;22;20148;-83
2023/01/12 10:51:57;;;;;;;2.45;0.60;;;10.70;99.90;;;;;;6270490;22;20662;-83
2023/01/12 10:54:30;;;;;;;5.32;1.30;;;10.50;99.90;;;;;;6271012;22;20144;-82
2023/01/12 10:57:03;;;;;;;2.58;1.02;;;10.50;99.90;;;;;;6270450;22;20148;-84
2023/01/12 10:59:31;;;;;;;3.42;1.08;;;10.70;99.90;;;;;;6269294;22;20151;-84
2023/01/12 11:02:07;;;;;;;3.88;0.75;;;10.70;99.90;;;;;;6268114;22;20286;-80
2023/01/12 11:04:42;;;;;;;2.20;0.80;;;10.60;99.90;;;;;;6268092;22;20179;-81
2023/01/12 11:07:24;;;;;;;4.55;0.95;;;10.80;99.90;;;;;;6285277;22;20135;-82
2023/01/12 11:09:50;;;;;;;4.90;0.70;;;10.70;99.90;;;;;;6274756;22;20131;-83
2023/01/12 11:12:32;;;;;;;2.60;0.80;;;10.70;99.90;;;;;;6270731;22;20670;-82
2023/01/12 11:15:14;;;;;;;2.25;0.77;;;10.80;99.90;;;;;;6269743;22;20821;-82
2023/01/12 11:18:02;;;;;;;1.35;0.70;;;10.80;99.90;;;;;;6279783;22;20132;-80
2023/01/12 11:20:38;;;;;;;4.70;0.90;;;10.90;99.90;;;;;;6287465;22;20140;-83
2023/01/12 11:23:09;;;;;;;0.85;0.60;;;11.00;99.90;;;;;;6273031;22;20155;-84
2023/01/12 11:25:43;;;;;;;1.88;0.80;;;11.00;99.90;;;;;;6273678;22;20175;-81
2023/01/12 11:28:25;;;;;;;3.70;0.85;;;10.80;99.90;;;;;;6268501;22;20152;-84
2023/01/12 11:30:59;;;;;;;1.88;0.60;;;10.90;99.90;;;;;;6273781;22;20175;-83
2023/01/12 11:33:42;;;;;;;2.50;0.80;;;10.90;99.90;;;;;;6271842;22;20160;-85
2023/01/12 11:36:19;;;;;;;2.70;0.70;;;10.80;99.90;;;;;;6270054;22;20135;-82
2023/01/12 11:38:55;;;;;;;4.00;0.70;;;10.90;99.90;;;;;;6272350;22;20128;-83
2023/01/12 11:41:42;;;;;;;3.85;0.70;;;11.10;99.90;;;;;;6270004;22;20171;-81
2023/01/12 11:44:25;;;;;;;1.13;0.60;;;11.30;99.90;;;;;;6271617;22;20206;-85
2023/01/12 11:47:12;;;;;;;3.80;0.88;;;11.50;99.90;;;;;;6273442;22;20139;-81
2023/01/12 11:49:56;;;;;;;1.10;0.60;;;11.40;99.90;;;;;;6271210;22;20684;-83
2023/01/12 11:52:24;;;;;;;0.90;0.40;;;11.50;99.90;;;;;;6271059;22;20222;-83
2023/01/12 11:54:50;;;;;;;1.98;0.68;;;11.50;99.90;;;;;;6272468;22;20258;-84
2023/01/12 11:57:29;;;;;;;1.90;0.73;;;11.40;99.90;;;;;;6271756;22;20187;-82
2023/01/12 12:00:32;;;;;;;1.10;0.45;;;11.40;99.90;;;;;;6270255;22;20148;-82
2023/01/12 12:03:37;;;;;;;1.95;0.80;;;11.70;99.90;;;;;;6272418;22;20210;-84
2023/01/12 12:06:30;;;;;;;1.75;0.47;;;12.00;99.90;;;;;;6209680;22;20183;-82
2023/01/12 12:09:29;;;;;;;1.15;0.75;;;11.80;99.90;;;;;;6271379;22;20189;-84
2023/01/12 12:12:02;;;;;;;0.47;0.40;;;11.80;99.90;;;;;;6272080;22;20889;-82
2023/01/12 12:14:59;;;;;;;1.50;0.60;;;11.70;99.90;;;;;;6265197;22;20210;-82
2023/01/12 12:17:54;;;;;;;2.63;0.50;;;11.80;99.90;;;;;;6277650;22;20424;-82
2023/01/12 12:20:32;;;;;;;1.85;0.30;;;11.70;99.90;;;;;;6284828;22;20233;-81
2023/01/12 12:23:34;;;;;;;2.42;0.60;;;11.50;99.90;;;;;;6275654;22;20150;-82
2023/01/12 12:26:18;;;;;;;0.70;0.43;;;11.60;99.90;;;;;;6224882;22;20191;-80
2023/01/12 12:29:10;;;;;;;2.45;0.40;;;11.80;99.90;;;;;;6271326;22;21075;-83
2023/01/12 12:31:54;;;;;;;2.45;0.50;;;11.90;99.90;;;;;;6273672;22;20172;-81
2023/01/12 12:34:20;;;;;;;1.42;0.57;;;11.90;99.90;;;;;;6274552;22;20140;-82
2023/01/12 12:36:58;;;;;;;0.73;0.73;;;12.00;99.90;;;;;;6289795;22;20163;-85
2023/01/12 12:39:35;;;;;;;0.65;0.47;;;11.70;99.90;;;;;;6273734;22;20700;-81
2023/01/12 12:45:35;;;;;;;1.05;0.50;;;11.40;99.90;;;;;;6272069;22;20179;-84
2023/01/12 12:48:14;;;;;;;1.45;0.40;;;11.30;99.90;;;;;;6270479;22;20377;-82
2023/01/12 12:51:01;;;;;;;0.60;0.40;;;11.40;99.90;;;;;;6273522;22;20206;-81
2023/01/12 12:53:37;;;;;;;0.40;0.30;;;11.30;99.90;;;;;;6273710;22;20144;-83
2023/01/12 12:56:06;;;;;;;1.65;0.40;;;11.40;99.90;;;;;;6279467;22;20389;-84
2023/01/12 12:58:52;;;;;;;2.40;0.55;;;11.40;99.90;;;;;;6275730;22;20167;-82
2023/01/12 13:01:21;;;;;;;3.28;0.82;;;11.40;99.90;;;;;;6271802;22;20180;-83
2023/01/12 13:03:47;;;;;;;1.25;0.40;;;11.30;99.90;;;;;;6270184;22;20152;-82
2023/01/12 13:06:21;;;;;;;0.82;0.40;;;11.30;99.90;;;;;;6274280;22;20174;-82
2023/01/12 13:09:01;;;;;;;0.80;0.40;;;11.30;99.90;;;;;;6275974;22;20699;-82
2023/01/12 13:11:59;;;;;;;1.50;0.50;;;11.30;99.90;;;;;;6272705;22;20175;-84
2023/01/12 13:14:32;;;;;;;0.50;0.40;;;11.40;99.90;;;;;;6274155;22;20207;-84
2023/01/12 13:16:59;;;;;;;1.58;0.47;;;11.40;99.90;;;;;;6270435;22;20474;-82
2023/01/12 13:19:38;;;;;;;0.60;0.40;;;11.30;99.90;;;;;;6267154;22;20166;-83
2023/01/12 13:22:41;;;;;;;1.13;0.38;;;11.40;99.90;;;;;;6270677;22;20198;-82
2023/01/12 13:25:15;;;;;;;0.40;0.30;;;11.40;99.90;;;;;;6269818;22;20532;-81
2023/01/12 13:27:48;;;;;;;1.02;0.65;;;11.20;99.90;;;;;;6270947;22;20146;-84
2023/01/12 13:30:28;;;;;;;3.85;0.60;;;11.20;99.90;;;;;;6269787;22;20140;-82
2023/01/12 13:33:13;;;;;;;0.80;0.43;;;11.30;99.90;;;;;;6271575;22;20144;-81
2023/01/12 13:35:39;;;;;;;1.25;0.60;;;11.30;99.90;;;;;;6287979;22;20174;-82
2023/01/12 13:38:23;;;;;;;0.93;0.40;;;11.30;99.90;;;;;;6274444;22;20148;-83
2023/01/12 13:40:49;;;;;;;2.03;0.60;;;11.20;99.90;;;;;;6278148;22;20487;-81
2023/01/12 13:43:31;;;;;;;1.70;0.60;;;11.10;99.90;;;;;;6278612;22;20152;-84
2023/01/12 13:46:02;;;;;;;1.08;0.60;;;11.10;99.90;;;;;;6276810;22;20176;-82
2023/01/12 13:48:30;;;;;;;1.00;0.82;;;11.10;99.90;;;;;;6274415;22;20144;-82
2023/01/12 13:51:02;;;;;;;1.08;0.52;;;11.00;99.90;;;;;;6273663;22;20172;-84
2023/01/12 13:53:30;;;;;;;0.82;0.57;;;11.10;99.90;;;;;;6273425;22;20148;-83
2023/01/12 13:56:01;;;;;;;0.40;0.30;;;11.10;99.90;;;;;;6272213;22;20243;-85
2023/01/12 13:58:35;;;;;;;0.50;0.40;;;11.00;99.90;;;;;;6271899;22;20202;-83